createdAt,value
2023-03-17T00:00:43.837Z,3.95
2023-03-17T00:03:17.968Z,3.45
2023-03-17T00:05:46.977Z,4.15
2023-03-17T00:08:21.640Z,1.95
2023-03-17T00:10:51.117Z,1.67
2023-03-17T00:13:20.469Z,2.40
2023-03-17T00:15:53.963Z,1.73
2023-03-17T00:18:23.610Z,3.80
2023-03-17T00:20:52.610Z,2.28
2023-03-17T00:23:24.471Z,1.45
2023-03-17T00:25:54.336Z,11.15
2023-03-17T00:28:25.371Z,5.15
2023-03-17T00:30:56.888Z,2.45
2023-03-17T00:33:28.193Z,1.40
2023-03-17T00:35:58.692Z,1.33
2023-03-17T00:38:29.752Z,2.20
2023-03-17T00:41:00.186Z,2.08
2023-03-17T00:43:30.643Z,1.30
2023-03-17T00:45:59.528Z,2.83
2023-03-17T00:48:29.943Z,2.05
2023-03-17T00:50:59.494Z,1.98
2023-03-17T00:53:32.048Z,2.55
2023-03-17T00:56:01.410Z,3.08
2023-03-17T00:58:32.899Z,3.00
2023-03-17T01:01:02.476Z,1.10
2023-03-17T01:03:31.230Z,1.10
2023-03-17T01:06:00.508Z,1.52
2023-03-17T01:08:31.855Z,3.20
2023-03-17T01:11:01.979Z,1.60
2023-03-17T01:13:30.810Z,2.50
2023-03-17T01:15:59.850Z,1.58
2023-03-17T01:18:28.917Z,2.63
2023-03-17T01:20:57.765Z,3.60
2023-03-17T01:23:27.412Z,1.92
2023-03-17T01:25:57.585Z,2.75
2023-03-17T01:28:26.674Z,2.75
2023-03-17T01:30:55.496Z,2.72
2023-03-17T01:33:24.379Z,2.38
2023-03-17T01:35:53.475Z,1.73
2023-03-17T01:38:22.635Z,0.90
2023-03-17T01:40:53.566Z,1.77
2023-03-17T01:43:25.708Z,1.92
2023-03-17T01:49:00.806Z,1.33
2023-03-17T01:51:34.899Z,2.40
2023-03-17T01:54:09.477Z,2.00
2023-03-17T01:56:39.939Z,1.95
2023-03-17T01:59:13.629Z,2.75
2023-03-17T02:01:47.436Z,2.25
2023-03-17T02:04:17.432Z,2.22
2023-03-17T02:06:57.403Z,2.00
2023-03-17T02:09:28.966Z,2.78
2023-03-17T02:11:59.918Z,2.38
2023-03-17T02:14:30.529Z,3.92
2023-03-17T02:16:59.339Z,5.85
2023-03-17T02:19:28.629Z,0.85
2023-03-17T02:22:02.596Z,3.85
2023-03-17T02:27:06.708Z,2.10
2023-03-17T02:29:37.883Z,4.10
2023-03-17T02:32:07.652Z,1.65
2023-03-17T02:34:36.623Z,2.67
2023-03-17T02:37:07.751Z,2.20
2023-03-17T02:39:37.062Z,3.47
2023-03-17T02:42:06.616Z,2.65
2023-03-17T02:44:36.203Z,5.15
2023-03-17T02:47:06.604Z,3.40
2023-03-17T02:49:35.911Z,1.58
2023-03-17T02:52:05.640Z,2.05
2023-03-17T02:54:36.099Z,1.63
2023-03-17T02:57:05.668Z,1.67
2023-03-17T02:59:34.452Z,2.47
2023-03-17T03:02:03.318Z,3.70
2023-03-17T03:04:32.674Z,2.45
2023-03-17T03:07:01.744Z,1.85
2023-03-17T03:09:30.582Z,2.90
2023-03-17T03:12:00.640Z,2.50
2023-03-17T03:14:29.610Z,2.55
2023-03-17T03:16:58.620Z,3.05
2023-03-17T03:19:28.024Z,2.53
2023-03-17T03:21:56.985Z,4.93
2023-03-17T03:24:25.738Z,3.08
2023-03-17T03:26:54.520Z,1.55
2023-03-17T03:29:24.746Z,3.05
2023-03-17T03:31:53.453Z,2.45
2023-03-17T03:34:22.354Z,2.55
2023-03-17T03:36:51.281Z,2.33
2023-03-17T03:39:19.997Z,1.35
2023-03-17T03:41:48.803Z,1.88
2023-03-17T03:44:17.575Z,3.03
2023-03-17T03:46:47.616Z,4.78
2023-03-17T03:49:16.432Z,2.88
2023-03-17T03:51:45.277Z,2.13
2023-03-17T03:54:14.145Z,3.38
2023-03-17T03:56:42.820Z,1.90
2023-03-17T03:59:11.665Z,2.65
2023-03-17T04:01:41.542Z,1.38
2023-03-17T04:04:11.726Z,2.55
2023-03-17T04:06:40.817Z,1.90
2023-03-17T04:09:10.286Z,2.63
2023-03-17T04:11:39.008Z,2.70
2023-03-17T04:14:08.587Z,3.67
2023-03-17T04:16:37.327Z,1.83
2023-03-17T04:19:06.767Z,1.63
2023-03-17T04:21:36.918Z,2.65
2023-03-17T04:24:06.308Z,2.95
2023-03-17T04:26:34.999Z,4.18
2023-03-17T04:29:03.820Z,2.03
2023-03-17T04:31:32.557Z,2.03
2023-03-17T04:34:01.255Z,1.92
2023-03-17T04:36:30.236Z,2.63
2023-03-17T04:39:02.069Z,1.65
2023-03-17T04:41:31.071Z,2.33
2023-03-17T04:43:59.813Z,2.65
2023-03-17T04:46:28.496Z,2.58
2023-03-17T04:48:57.333Z,2.22
2023-03-17T04:51:26.220Z,4.13
2023-03-17T04:53:55.216Z,2.63
2023-03-17T04:56:25.333Z,2.83
2023-03-17T04:58:54.060Z,3.42
2023-03-17T05:01:23.259Z,2.60
2023-03-17T05:03:52.062Z,2.72
2023-03-17T05:06:20.986Z,1.73
2023-03-17T05:08:49.798Z,3.00
2023-03-17T05:11:18.761Z,3.08
2023-03-17T05:13:48.993Z,4.22
2023-03-17T05:16:17.672Z,2.72
2023-03-17T05:18:46.974Z,4.43
2023-03-17T05:21:17.407Z,2.95
2023-03-17T05:23:46.112Z,2.40
2023-03-17T05:26:14.867Z,2.15
2023-03-17T05:28:43.517Z,3.03
2023-03-17T05:31:13.680Z,4.75
2023-03-17T05:33:42.407Z,2.53
2023-03-17T05:36:11.243Z,3.30
2023-03-17T05:38:40.086Z,3.30
2023-03-17T05:41:10.628Z,3.72
2023-03-17T05:43:39.784Z,3.60
2023-03-17T05:46:09.251Z,6.57
2023-03-17T05:48:39.462Z,2.28
2023-03-17T05:51:08.582Z,7.07
2023-03-17T05:53:37.282Z,1.88
2023-03-17T05:56:06.616Z,4.68
2023-03-17T05:58:35.555Z,2.22
2023-03-17T06:01:04.496Z,1.60
2023-03-17T06:03:33.470Z,3.38
2023-03-17T06:06:03.606Z,2.60
2023-03-17T06:08:32.338Z,4.03
2023-03-17T06:11:01.868Z,4.55
2023-03-17T06:13:30.769Z,3.60
2023-03-17T06:15:59.645Z,2.10
2023-03-17T06:18:28.580Z,3.20
2023-03-17T06:20:57.336Z,2.28
2023-03-17T06:23:27.340Z,5.40
2023-03-17T06:25:56.516Z,3.15
2023-03-17T06:28:25.778Z,3.95
2023-03-17T06:30:54.451Z,4.10
2023-03-17T06:33:23.447Z,6.10
2023-03-17T06:35:52.691Z,2.75
2023-03-17T06:38:22.041Z,3.92
2023-03-17T06:40:52.224Z,2.58
2023-03-17T06:43:22.173Z,5.40
2023-03-17T06:45:51.620Z,5.63
2023-03-17T06:48:20.702Z,4.72
2023-03-17T06:50:50.312Z,3.47
2023-03-17T06:53:19.198Z,3.60
2023-03-17T06:55:48.440Z,2.63
2023-03-17T06:58:20.408Z,5.38
2023-03-17T07:00:49.786Z,6.78
2023-03-17T07:03:18.770Z,3.55
2023-03-17T07:05:47.879Z,4.03
2023-03-17T07:08:17.101Z,3.25
2023-03-17T07:10:46.484Z,3.65
2023-03-17T07:13:15.312Z,3.28
2023-03-17T07:15:46.482Z,3.70
2023-03-17T07:18:15.298Z,5.57
2023-03-17T07:20:44.471Z,2.42
2023-03-17T07:23:16.160Z,5.70
2023-03-17T07:25:45.761Z,4.05
2023-03-17T07:28:14.804Z,3.95
2023-03-17T07:30:46.989Z,5.60
2023-03-17T07:33:17.004Z,6.30
2023-03-17T07:35:46.030Z,7.55
2023-03-17T07:38:15.114Z,3.78
2023-03-17T07:40:44.133Z,3.95
2023-03-17T07:43:12.927Z,4.18
2023-03-17T07:45:41.775Z,4.97
2023-03-17T07:48:11.887Z,4.43
2023-03-17T07:50:41.503Z,2.97
2023-03-17T07:53:10.982Z,5.07
2023-03-17T07:55:39.828Z,4.97
2023-03-17T07:58:09.192Z,4.13
2023-03-17T08:00:37.984Z,3.40
2023-03-17T08:03:10.678Z,4.82
2023-03-17T08:05:41.201Z,3.42
2023-03-17T08:08:10.769Z,3.15
2023-03-17T08:10:39.678Z,7.55
2023-03-17T08:13:08.463Z,4.68
2023-03-17T08:15:38.747Z,4.13
2023-03-17T08:18:07.987Z,6.47
2023-03-17T08:20:37.895Z,4.60
2023-03-17T08:23:08.574Z,3.95
2023-03-17T08:25:38.109Z,4.55
2023-03-17T08:28:07.028Z,7.13
2023-03-17T08:30:36.295Z,5.45
2023-03-17T08:33:05.878Z,3.95
2023-03-17T08:35:35.015Z,3.97
2023-03-17T08:38:04.637Z,2.28
2023-03-17T08:40:35.009Z,7.43
2023-03-17T08:43:03.963Z,4.75
2023-03-17T08:45:33.137Z,4.75
2023-03-17T08:48:01.983Z,4.72
2023-03-17T08:50:31.310Z,3.42
2023-03-17T08:53:00.236Z,3.25
2023-03-17T08:55:30.897Z,6.30
2023-03-17T08:58:01.610Z,4.20
2023-03-17T09:00:30.651Z,3.35
2023-03-17T09:03:00.917Z,4.90
2023-03-17T09:05:30.453Z,3.67
2023-03-17T09:07:59.326Z,4.03
2023-03-17T09:10:29.153Z,5.45
2023-03-17T09:13:03.069Z,3.78
2023-03-17T09:15:34.866Z,4.38
2023-03-17T09:18:04.319Z,2.80
2023-03-17T09:20:33.584Z,4.20
2023-03-17T09:23:07.904Z,8.65
2023-03-17T09:25:36.734Z,3.90
2023-03-17T09:28:07.214Z,6.32
2023-03-17T09:30:37.601Z,2.83
2023-03-17T09:33:06.480Z,4.78
2023-03-17T09:35:35.333Z,5.38
2023-03-17T09:38:04.234Z,3.40
2023-03-17T09:40:35.477Z,5.35
2023-03-17T09:43:13.342Z,4.03
2023-03-17T09:45:44.336Z,3.33
2023-03-17T09:48:29.766Z,4.38
2023-03-17T09:51:01.783Z,7.25
2023-03-17T09:53:36.053Z,4.00
2023-03-17T09:56:09.794Z,4.30
2023-03-17T09:58:40.620Z,5.13
2023-03-17T10:01:12.904Z,4.43
2023-03-17T10:03:42.766Z,3.20
2023-03-17T10:06:25.231Z,3.80
2023-03-17T10:08:59.516Z,4.85
2023-03-17T10:11:38.632Z,3.35
2023-03-17T10:14:21.685Z,5.93
2023-03-17T10:16:58.625Z,5.18
2023-03-17T10:19:31.090Z,3.97
2023-03-17T10:22:04.276Z,5.82
2023-03-17T10:24:35.620Z,5.40
2023-03-17T10:27:06.615Z,3.63
2023-03-17T10:29:36.059Z,5.38
2023-03-17T10:32:06.762Z,6.55
2023-03-17T10:34:38.215Z,5.30
2023-03-17T10:37:09.486Z,31.10
2023-03-17T10:39:45.830Z,5.13
2023-03-17T10:42:21.077Z,4.15
2023-03-17T10:44:53.907Z,5.28
2023-03-17T10:47:30.313Z,4.30
2023-03-17T10:50:00.950Z,5.63
2023-03-17T10:52:32.742Z,4.15
2023-03-17T10:55:07.886Z,4.60
2023-03-17T10:57:38.948Z,3.75
2023-03-17T11:00:16.706Z,6.97
2023-03-17T11:02:57.593Z,4.60
2023-03-17T11:05:29.349Z,5.32
2023-03-17T11:08:11.577Z,5.65
2023-03-17T11:10:41.987Z,4.53
2023-03-17T11:13:11.412Z,6.15
2023-03-17T11:15:44.060Z,6.85
2023-03-17T11:18:20.849Z,4.07
2023-03-17T11:20:55.467Z,7.07
2023-03-17T11:23:48.254Z,8.65
2023-03-17T11:26:46.785Z,5.85
2023-03-17T11:29:24.978Z,6.45
2023-03-17T11:32:05.230Z,7.78
2023-03-17T11:34:48.994Z,5.18
2023-03-17T11:37:30.219Z,4.28
2023-03-17T11:40:06.122Z,3.13
2023-03-17T11:42:45.152Z,5.70
2023-03-17T11:45:25.122Z,5.32
2023-03-17T11:48:15.045Z,5.78
2023-03-17T11:50:56.965Z,6.80
2023-03-17T11:53:41.378Z,5.75
2023-03-17T11:56:15.649Z,3.42
2023-03-17T11:58:46.339Z,3.90
2023-03-17T12:01:19.168Z,3.85
2023-03-17T12:03:53.227Z,3.65
2023-03-17T12:06:30.574Z,4.72
2023-03-17T12:09:04.162Z,6.18
2023-03-17T12:11:39.969Z,4.18
2023-03-17T12:14:21.161Z,4.82
2023-03-17T12:16:53.532Z,5.03
2023-03-17T12:19:28.186Z,3.90
2023-03-17T12:22:05.689Z,4.95
2023-03-17T12:24:40.748Z,4.38
2023-03-17T12:27:15.864Z,3.65
2023-03-17T12:29:49.966Z,8.63
2023-03-17T12:32:23.082Z,4.70
2023-03-17T12:34:57.061Z,8.50
2023-03-17T12:37:30.101Z,4.10
2023-03-17T12:40:07.372Z,8.23
2023-03-17T12:42:43.500Z,6.28
2023-03-17T12:45:41.143Z,6.30
2023-03-17T12:48:42.462Z,5.35
2023-03-17T12:51:30.979Z,3.42
2023-03-17T12:54:01.664Z,6.00
2023-03-17T12:56:32.408Z,3.25
2023-03-17T12:59:04.134Z,5.97
2023-03-17T13:01:34.881Z,5.03
2023-03-17T13:04:17.831Z,2.60
2023-03-17T13:06:49.301Z,3.55
2023-03-17T13:09:39.584Z,4.22
2023-03-17T13:12:30.648Z,4.03
2023-03-17T13:15:01.268Z,2.33
2023-03-17T13:17:35.121Z,7.07
2023-03-17T13:20:17.234Z,2.85
2023-03-17T13:23:04.652Z,3.33
2023-03-17T13:25:36.060Z,3.47
2023-03-17T13:28:24.353Z,3.65
2023-03-17T13:31:16.272Z,3.78
2023-03-17T13:33:47.426Z,6.57
2023-03-17T13:36:38.765Z,3.80
2023-03-17T13:39:46.158Z,4.20
2023-03-17T13:42:30.238Z,5.20
2023-03-17T13:47:47.290Z,3.42
2023-03-17T13:50:18.162Z,4.20
2023-03-17T13:52:51.211Z,2.80
2023-03-17T13:55:41.265Z,3.60
2023-03-17T13:58:26.391Z,3.72
2023-03-17T14:01:03.788Z,8.65
2023-03-17T14:03:41.881Z,3.05
2023-03-17T14:06:13.446Z,7.25
2023-03-17T14:08:47.900Z,4.35
2023-03-17T14:11:29.907Z,4.20
2023-03-17T14:14:29.662Z,6.85
2023-03-17T14:17:08.154Z,3.67
2023-03-17T14:19:41.585Z,3.28
2023-03-17T14:22:24.464Z,2.22
2023-03-17T14:24:55.288Z,2.42
2023-03-17T14:27:25.465Z,9.20
2023-03-17T14:29:54.629Z,4.53
2023-03-17T14:32:26.465Z,5.30
2023-03-17T14:34:59.637Z,4.50
2023-03-17T14:37:29.127Z,2.55
2023-03-17T14:39:59.130Z,5.57
2023-03-17T14:42:30.009Z,3.13
2023-03-17T14:45:03.591Z,4.97
2023-03-17T14:47:38.946Z,3.35
2023-03-17T14:50:17.872Z,7.45
2023-03-17T14:52:46.692Z,3.53
2023-03-17T14:55:17.024Z,4.30
2023-03-17T14:57:53.116Z,4.70
2023-03-17T15:00:34.032Z,6.22
2023-03-17T15:03:05.336Z,3.15
2023-03-17T15:05:41.695Z,3.78
2023-03-17T15:08:36.175Z,3.97
2023-03-17T15:11:06.558Z,5.55
2023-03-17T15:13:37.624Z,3.85
2023-03-17T15:16:17.869Z,4.13
2023-03-17T15:18:47.452Z,3.33
2023-03-17T15:21:29.814Z,4.28
2023-03-17T15:23:58.600Z,5.32
2023-03-17T15:26:32.169Z,4.50
2023-03-17T15:29:01.444Z,3.75
2023-03-17T15:31:30.820Z,4.82
2023-03-17T15:33:59.944Z,2.50
2023-03-17T15:36:32.996Z,5.15
2023-03-17T15:39:03.581Z,6.30
2023-03-17T15:41:32.294Z,2.55
2023-03-17T15:44:03.411Z,4.60
2023-03-17T15:46:33.748Z,3.25
2023-03-17T15:49:02.611Z,4.03
2023-03-17T15:51:32.846Z,2.88
2023-03-17T15:54:01.548Z,4.20
2023-03-17T15:56:30.446Z,6.35
2023-03-17T15:58:59.095Z,3.83
2023-03-17T16:01:28.139Z,5.20
2023-03-17T16:03:57.470Z,2.83
2023-03-17T16:06:26.466Z,4.47
2023-03-17T16:08:56.637Z,4.30
2023-03-17T16:11:28.931Z,5.88
2023-03-17T16:16:31.674Z,4.43
2023-03-17T16:19:00.503Z,6.03
2023-03-17T16:21:31.247Z,4.43
2023-03-17T16:24:01.487Z,4.45
2023-03-17T16:26:30.527Z,4.13
2023-03-17T16:28:59.334Z,4.15
2023-03-17T16:31:30.818Z,6.00
2023-03-17T16:33:59.759Z,3.45
2023-03-17T16:36:28.661Z,3.22
2023-03-17T16:38:57.474Z,7.78
2023-03-17T16:41:29.570Z,7.85
2023-03-17T16:44:01.516Z,6.82
2023-03-17T16:46:35.607Z,4.95
2023-03-17T16:49:05.188Z,5.25
2023-03-17T16:51:34.182Z,6.10
2023-03-17T16:54:02.807Z,6.88
2023-03-17T16:56:33.294Z,6.32
2023-03-17T16:59:02.894Z,5.38
2023-03-17T17:01:31.956Z,8.32
2023-03-17T17:04:01.052Z,4.88
2023-03-17T17:06:30.309Z,5.13
2023-03-17T17:08:59.052Z,5.70
2023-03-17T17:11:28.166Z,6.47
2023-03-17T17:13:59.897Z,3.58
2023-03-17T17:16:31.518Z,7.90
2023-03-17T17:19:00.567Z,7.07
2023-03-17T17:21:29.828Z,6.05
2023-03-17T17:23:59.760Z,5.55
2023-03-17T17:26:28.526Z,6.13
2023-03-17T17:28:58.694Z,5.15
2023-03-17T17:31:27.752Z,5.45
2023-03-17T17:33:56.693Z,4.15
2023-03-17T17:36:27.280Z,8.10
2023-03-17T17:38:56.353Z,6.30
2023-03-17T17:41:25.150Z,5.40
2023-03-17T17:43:54.178Z,6.95
2023-03-17T17:46:24.654Z,6.28
2023-03-17T17:48:53.415Z,7.43
2023-03-17T17:51:22.236Z,4.57
2023-03-17T17:53:51.677Z,7.20
2023-03-17T17:56:20.624Z,6.50
2023-03-17T17:58:49.874Z,6.05
2023-03-17T18:01:21.923Z,5.63
2023-03-17T18:03:52.142Z,5.82
2023-03-17T18:06:21.038Z,5.75
2023-03-17T18:08:51.023Z,6.35
2023-03-17T18:11:20.117Z,9.65
2023-03-17T18:13:49.022Z,8.43
2023-03-17T18:16:19.246Z,6.70
2023-03-17T18:18:48.595Z,8.05
2023-03-17T18:21:22.041Z,5.47
2023-03-17T18:23:55.751Z,5.85
2023-03-17T18:26:28.173Z,6.60
2023-03-17T18:31:34.585Z,5.53
2023-03-17T18:34:08.795Z,8.13
2023-03-17T18:36:39.772Z,7.45
2023-03-17T18:39:08.978Z,5.38
2023-03-17T18:41:38.480Z,9.35
2023-03-17T18:44:10.040Z,7.97
2023-03-17T18:46:39.149Z,7.22
2023-03-17T18:49:09.001Z,9.98
2023-03-17T18:51:39.226Z,8.15
2023-03-17T18:54:08.323Z,8.88
2023-03-17T18:56:37.068Z,8.40
2023-03-17T18:59:05.906Z,7.65
2023-03-17T19:01:35.290Z,8.35
2023-03-17T19:04:05.803Z,7.35
2023-03-17T19:06:35.453Z,11.98
2023-03-17T19:09:05.711Z,9.20
2023-03-17T19:11:34.663Z,10.43
2023-03-17T19:14:03.637Z,7.68
2023-03-17T19:16:33.331Z,8.82
2023-03-17T19:19:02.753Z,12.63
2023-03-17T19:21:32.548Z,10.13
2023-03-17T19:24:03.366Z,9.50
2023-03-17T19:26:33.679Z,8.95
2023-03-17T19:29:02.631Z,8.63
2023-03-17T19:31:31.514Z,7.47
2023-03-17T19:34:00.337Z,11.30
2023-03-17T19:36:35.640Z,8.48
2023-03-17T19:39:04.442Z,9.00
2023-03-17T19:41:34.863Z,9.77
2023-03-17T19:44:06.706Z,9.82
2023-03-17T19:46:36.230Z,9.80
2023-03-17T19:49:05.846Z,8.15
2023-03-17T19:51:34.782Z,11.80
2023-03-17T19:54:05.293Z,10.95
2023-03-17T19:56:35.457Z,7.55
2023-03-17T19:59:04.288Z,11.48
2023-03-17T20:01:33.105Z,11.23
2023-03-17T20:04:02.081Z,11.98
2023-03-17T20:06:32.055Z,12.77
2023-03-17T20:09:01.043Z,12.27
2023-03-17T20:11:33.705Z,18.52
2023-03-17T20:14:07.302Z,13.77
2023-03-17T20:16:37.070Z,11.38
2023-03-17T20:19:06.585Z,13.73
2023-03-17T20:21:35.574Z,10.18
2023-03-17T20:24:05.028Z,11.50
2023-03-17T20:26:33.993Z,12.95
2023-03-17T20:29:11.091Z,13.27
2023-03-17T20:31:40.398Z,12.65
2023-03-17T20:34:10.060Z,13.68
2023-03-17T20:36:42.452Z,11.60
2023-03-17T20:39:14.762Z,13.43
2023-03-17T20:41:43.705Z,12.05
2023-03-17T20:44:13.798Z,10.40
2023-03-17T20:46:43.904Z,12.10
2023-03-17T20:49:12.871Z,13.02
2023-03-17T20:51:44.805Z,9.27
2023-03-17T20:54:13.800Z,16.98
2023-03-17T20:56:45.600Z,13.60
2023-03-17T20:59:16.366Z,10.02
2023-03-17T21:01:45.161Z,9.45
2023-03-17T21:04:16.022Z,10.60
2023-03-17T21:06:44.931Z,8.93
2023-03-17T21:09:14.087Z,13.43
2023-03-17T21:11:42.941Z,12.65
2023-03-17T21:14:15.369Z,14.73
2023-03-17T21:16:45.201Z,14.52
2023-03-17T21:19:15.295Z,10.35
2023-03-17T21:21:44.622Z,13.98
2023-03-17T21:24:24.987Z,11.65
2023-03-17T21:26:53.761Z,16.38
2023-03-17T21:29:23.995Z,14.15
2023-03-17T21:31:52.970Z,15.38
2023-03-17T21:34:21.922Z,16.40
2023-03-17T21:36:50.772Z,15.77
2023-03-17T21:39:20.035Z,12.18
2023-03-17T21:41:50.938Z,10.30
2023-03-17T21:44:20.259Z,10.73
2023-03-17T21:46:51.281Z,12.93
2023-03-17T21:49:23.914Z,10.68
2023-03-17T21:51:54.487Z,13.45
2023-03-17T21:54:23.373Z,10.40
2023-03-17T21:56:52.701Z,13.38
2023-03-17T21:59:21.574Z,10.27
2023-03-17T22:01:52.916Z,13.02
2023-03-17T22:04:21.839Z,8.82
2023-03-17T22:06:52.113Z,11.27
2023-03-17T22:09:21.808Z,17.23
2023-03-17T22:11:50.865Z,19.85
2023-03-17T22:14:22.518Z,14.80
2023-03-17T22:16:53.495Z,12.40
2023-03-17T22:19:22.632Z,15.43
2023-03-17T22:21:51.829Z,14.23
2023-03-17T22:24:21.462Z,11.30
2023-03-17T22:26:50.281Z,15.95
2023-03-17T22:29:19.907Z,13.90
2023-03-17T22:31:48.752Z,12.52
2023-03-17T22:34:19.418Z,11.35
2023-03-17T22:36:48.250Z,13.45
2023-03-17T22:39:17.338Z,16.70
2023-03-17T22:41:46.194Z,12.07
2023-03-17T22:44:15.270Z,11.70
2023-03-17T22:46:44.305Z,16.40
2023-03-17T22:49:14.192Z,16.38
2023-03-17T22:51:44.601Z,14.23
2023-03-17T22:54:13.543Z,12.98
2023-03-17T22:56:42.362Z,14.60
2023-03-17T22:59:11.587Z,12.45
2023-03-17T23:01:40.572Z,14.15
2023-03-17T23:04:10.189Z,12.27
2023-03-17T23:06:39.036Z,13.43
2023-03-17T23:09:09.511Z,12.82
2023-03-17T23:11:38.607Z,12.20
2023-03-17T23:14:07.478Z,18.42
2023-03-17T23:16:37.688Z,13.65
2023-03-17T23:19:06.853Z,11.38
2023-03-17T23:21:38.556Z,11.80
2023-03-17T23:24:09.887Z,14.70
2023-03-17T23:26:39.020Z,16.63
2023-03-17T23:29:09.475Z,14.35
2023-03-17T23:31:39.718Z,16.80
2023-03-17T23:34:09.725Z,21.17
2023-03-17T23:36:40.139Z,15.65
2023-03-17T23:39:10.486Z,16.40
2023-03-17T23:41:39.661Z,15.20
2023-03-17T23:44:09.432Z,15.10
2023-03-17T23:46:38.696Z,11.73
2023-03-17T23:49:08.281Z,13.18
2023-03-17T23:51:37.911Z,18.17
2023-03-17T23:54:07.936Z,13.27
2023-03-17T23:56:38.257Z,13.30
2023-03-17T23:59:08.136Z,16.73
